Time;durP1;ratioP1;P1;durP2;ratioP2;P2;SDS_P1;SDS_P2;PMS_P1;PMS_P2;Temp;Humidity;BMP_temperature;BMP_pressure;BME280_temperature;BME280_humidity;BME280_pressure;Samples;Min_cycle;Max_cycle;Signal;HPM_P1;HPM_P2
2023/03/18 00:01:11;;;;;;;18.85;10.52;;;;;;;;;;5097772;28;20145;-65
2023/03/18 00:03:37;;;;;;;17.38;10.10;;;;;;;;;;5079316;28;20020;-65
2023/03/18 00:06:03;;;;;;;22.33;11.20;;;;;;;;;;5097670;28;20032;-65
2023/03/18 00:08:29;;;;;;;17.45;11.13;;;;;;;;;;5063219;28;20089;-65
2023/03/18 00:10:54;;;;;;;18.80;10.38;;;;;;;;;;5079146;28;20081;-65
2023/03/18 00:13:20;;;;;;;20.23;10.98;;;;;;;;;;5097211;28;20031;-64
2023/03/18 00:15:49;;;;;;;19.30;11.82;;;;;;;;;;5097515;28;20078;-65
2023/03/18 00:18:14;;;;;;;19.38;11.13;;;;;;;;;;5097144;28;20114;-65
2023/03/18 00:20:40;;;;;;;19.60;11.52;;;;;;;;;;5097140;28;20128;-65
2023/03/18 00:23:07;;;;;;;21.30;11.18;;;;;;;;;;5079757;28;20118;-65
2023/03/18 00:25:32;;;;;;;20.17;11.05;;;;;;;;;;5097013;28;20066;-65
2023/03/18 00:27:58;;;;;;;20.65;11.32;;;;;;;;;;5097211;28;20482;-65
2023/03/18 00:30:24;;;;;;;18.30;10.68;;;;;;;;;;5078712;28;20032;-64
2023/03/18 00:32:49;;;;;;;20.63;11.30;;;;;;;;;;5097154;28;20063;-65
2023/03/18 00:35:15;;;;;;;21.55;11.35;;;;;;;;;;5078675;28;20096;-65
2023/03/18 00:37:41;;;;;;;18.33;10.90;;;;;;;;;;5096794;28;20024;-65
2023/03/18 00:40:09;;;;;;;19.67;11.52;;;;;;;;;;5078546;28;20469;-65
2023/03/18 00:42:38;;;;;;;20.52;11.23;;;;;;;;;;5078555;28;20036;-65
2023/03/18 00:45:05;;;;;;;21.27;11.40;;;;;;;;;;5096695;28;20040;-65
2023/03/18 00:47:31;;;;;;;19.23;11.50;;;;;;;;;;5096998;28;20274;-65
2023/03/18 00:49:56;;;;;;;21.33;12.18;;;;;;;;;;5096863;28;20032;-65
2023/03/18 00:52:21;;;;;;;20.23;11.80;;;;;;;;;;5079227;28;20016;-65
2023/03/18 00:54:47;;;;;;;20.10;11.35;;;;;;;;;;5096636;28;20081;-65
2023/03/18 00:57:13;;;;;;;24.48;12.50;;;;;;;;;;5096432;28;20377;-65
2023/03/18 00:59:39;;;;;;;22.63;11.88;;;;;;;;;;5078210;28;20020;-65
2023/03/18 01:02:04;;;;;;;23.50;12.57;;;;;;;;;;5096379;28;20351;-65
2023/03/18 01:04:30;;;;;;;21.98;11.88;;;;;;;;;;5078144;28;20024;-65
2023/03/18 01:06:55;;;;;;;24.08;12.20;;;;;;;;;;5078202;28;20031;-65
2023/03/18 01:09:21;;;;;;;25.30;12.48;;;;;;;;;;5096428;28;20043;-65
2023/03/18 01:11:47;;;;;;;24.20;11.93;;;;;;;;;;5078102;28;20059;-65
2023/03/18 01:14:12;;;;;;;19.48;10.93;;;;;;;;;;5096387;28;20057;-65
2023/03/18 01:16:38;;;;;;;20.10;11.45;;;;;;;;;;5077912;28;20427;-65
2023/03/18 01:19:03;;;;;;;19.60;11.95;;;;;;;;;;5096288;28;20492;-65
2023/03/18 01:21:29;;;;;;;21.77;11.77;;;;;;;;;;5095947;28;20047;-65
2023/03/18 01:23:59;;;;;;;23.92;11.95;;;;;;;;;;5077769;28;20028;-65
2023/03/18 01:26:25;;;;;;;20.20;11.40;;;;;;;;;;5077701;28;20035;-65
2023/03/18 01:28:52;;;;;;;22.00;11.45;;;;;;;;;;5078099;28;20105;-65
2023/03/18 01:31:18;;;;;;;19.85;11.48;;;;;;;;;;5095766;28;20028;-65
2023/03/18 01:33:44;;;;;;;19.98;11.18;;;;;;;;;;5096031;28;20027;-65
2023/03/18 01:36:10;;;;;;;21.60;11.07;;;;;;;;;;5095672;28;20012;-65
2023/03/18 01:38:36;;;;;;;19.80;11.00;;;;;;;;;;5077462;28;20028;-65
2023/03/18 01:41:08;;;;;;;18.35;11.18;;;;;;;;;;5061876;28;20055;-65
2023/03/18 01:43:37;;;;;;;20.88;11.38;;;;;;;;;;5077343;28;20040;-65
2023/03/18 01:46:22;;;;;;;20.05;11.57;;;;;;;;;;5077359;28;20016;-65
2023/03/18 01:48:48;;;;;;;23.10;10.90;;;;;;;;;;5077052;28;20039;-65
2023/03/18 01:51:14;;;;;;;21.20;11.15;;;;;;;;;;5077563;28;20073;-65
2023/03/18 01:53:46;;;;;;;19.98;11.15;;;;;;;;;;5095331;28;20095;-65
2023/03/18 01:56:12;;;;;;;18.63;10.27;;;;;;;;;;5095549;28;20386;-65
2023/03/18 01:58:39;;;;;;;20.88;11.02;;;;;;;;;;5077064;28;20024;-65
2023/03/18 02:01:24;;;;;;;20.05;11.57;;;;;;;;;;5077059;28;20035;-65
2023/03/18 02:03:51;;;;;;;16.92;10.77;;;;;;;;;;5077219;28;20031;-65
2023/03/18 02:06:17;;;;;;;19.48;11.25;;;;;;;;;;5076328;28;20032;-65
2023/03/18 02:08:46;;;;;;;19.00;11.18;;;;;;;;;;5077098;28;20423;-65
2023/03/18 02:11:12;;;;;;;20.27;10.90;;;;;;;;;;5076523;28;20563;-65
2023/03/18 02:13:40;;;;;;;20.65;10.95;;;;;;;;;;5076851;28;20028;-65
2023/03/18 02:16:12;;;;;;;20.80;11.18;;;;;;;;;;5076699;28;20020;-65
2023/03/18 02:18:44;;;;;;;19.25;10.80;;;;;;;;;;5076675;28;20038;-65
2023/03/18 02:21:22;;;;;;;20.63;11.00;;;;;;;;;;5095101;28;20032;-65
2023/03/18 02:23:51;;;;;;;18.08;10.50;;;;;;;;;;5076565;28;20078;-65
2023/03/18 02:26:30;;;;;;;20.58;11.68;;;;;;;;;;5077110;28;20032;-65
2023/03/18 02:28:58;;;;;;;24.95;13.05;;;;;;;;;;5076744;28;20513;-65
2023/03/18 02:31:25;;;;;;;27.02;13.82;;;;;;;;;;5076687;28;20024;-65
2023/03/18 02:33:51;;;;;;;29.17;14.10;;;;;;;;;;5076404;28;20505;-65
2023/03/18 02:36:23;;;;;;;40.15;16.67;;;;;;;;;;5076309;28;20024;-65
2023/03/18 02:38:50;;;;;;;29.10;14.13;;;;;;;;;;5076600;28;20496;-65
2023/03/18 02:41:22;;;;;;;29.83;14.93;;;;;;;;;;5076317;28;20032;-65
2023/03/18 02:43:49;;;;;;;37.33;16.30;;;;;;;;;;5076159;28;20038;-65
2023/03/18 02:46:17;;;;;;;38.60;16.75;;;;;;;;;;5076475;28;20031;-64
2023/03/18 02:48:44;;;;;;;45.00;19.02;;;;;;;;;;5076072;28;20062;-64
2023/03/18 02:51:10;;;;;;;61.72;21.63;;;;;;;;;;5076088;28;20028;-65
2023/03/18 02:53:36;;;;;;;112.43;34.60;;;;;;;;;;5094522;28;20107;-65
2023/03/18 02:56:02;;;;;;;153.02;44.03;;;;;;;;;;5075997;28;20066;-65
2023/03/18 02:58:28;;;;;;;177.55;54.25;;;;;;;;;;5076300;28;20473;-64
2023/03/18 03:00:56;;;;;;;215.70;66.32;;;;;;;;;;5075977;28;20367;-65
2023/03/18 03:03:22;;;;;;;169.13;59.15;;;;;;;;;;5075936;28;20106;-65
2023/03/18 03:05:48;;;;;;;120.70;46.22;;;;;;;;;;5075904;28;20466;-65
2023/03/18 03:08:14;;;;;;;101.43;39.63;;;;;;;;;;5075814;28;20110;-65
2023/03/18 03:10:42;;;;;;;69.65;29.80;;;;;;;;;;5075651;28;20032;-65
2023/03/18 03:13:11;;;;;;;30.55;14.38;;;;;;;;;;5075864;28;20058;-65
2023/03/18 03:15:38;;;;;;;24.05;12.10;;;;;;;;;;5076098;28;20016;-65
2023/03/18 03:18:04;;;;;;;20.85;12.07;;;;;;;;;;5074884;28;20042;-64
2023/03/18 03:20:32;;;;;;;32.88;17.02;;;;;;;;;;5075690;28;20114;-65
2023/03/18 03:22:58;;;;;;;37.10;21.27;;;;;;;;;;5075749;28;20474;-65
2023/03/18 03:25:25;;;;;;;36.05;21.38;;;;;;;;;;5075735;28;20062;-65
2023/03/18 03:27:51;;;;;;;28.67;17.55;;;;;;;;;;5075574;28;20438;-65
2023/03/18 03:30:17;;;;;;;24.55;14.75;;;;;;;;;;5075948;28;20123;-65
2023/03/18 03:32:42;;;;;;;23.10;13.48;;;;;;;;;;5094272;28;20032;-65
2023/03/18 03:35:11;;;;;;;17.13;11.02;;;;;;;;;;5075638;28;20024;-65
2023/03/18 03:37:36;;;;;;;17.10;10.07;;;;;;;;;;5093965;28;20035;-65
2023/03/18 03:40:02;;;;;;;16.90;9.65;;;;;;;;;;5093923;28;20016;-65
2023/03/18 03:42:27;;;;;;;16.13;9.85;;;;;;;;;;5075561;28;20462;-65
2023/03/18 03:44:52;;;;;;;14.82;9.20;;;;;;;;;;5058813;28;20032;-65
2023/03/18 03:47:18;;;;;;;14.75;9.20;;;;;;;;;;5075545;28;20020;-65
2023/03/18 03:49:43;;;;;;;18.05;9.52;;;;;;;;;;5075409;28;20036;-65
2023/03/18 03:52:09;;;;;;;15.90;9.55;;;;;;;;;;5075417;28;20058;-65
2023/03/18 03:54:37;;;;;;;14.27;9.20;;;;;;;;;;5075655;28;20066;-65
2023/03/18 03:57:03;;;;;;;15.00;8.82;;;;;;;;;;5093500;28;20063;-65
2023/03/18 03:59:28;;;;;;;12.55;8.65;;;;;;;;;;5094044;28;20028;-65
2023/03/18 04:02:14;;;;;;;15.60;9.45;;;;;;;;;;5075627;28;20024;-65
2023/03/18 04:04:40;;;;;;;12.70;8.77;;;;;;;;;;5085796;22;20052;-64
2023/03/18 04:07:11;;;;;;;15.07;8.77;;;;;;;;;;5091321;22;20095;-64
2023/03/18 04:09:37;;;;;;;16.65;9.40;;;;;;;;;;5101839;22;20056;-64
2023/03/18 04:12:03;;;;;;;14.15;9.57;;;;;;;;;;5075251;28;20578;-66
2023/03/18 04:14:28;;;;;;;15.65;9.70;;;;;;;;;;5093641;28;20080;-65
2023/03/18 04:16:59;;;;;;;14.73;9.82;;;;;;;;;;5075415;28;20020;-65
2023/03/18 04:19:26;;;;;;;16.85;10.15;;;;;;;;;;5093313;28;20439;-65
2023/03/18 04:21:55;;;;;;;24.73;11.18;;;;;;;;;;5075405;28;20149;-65
2023/03/18 04:24:22;;;;;;;20.58;10.45;;;;;;;;;;5059150;28;20027;-65
2023/03/18 04:26:47;;;;;;;15.20;8.85;;;;;;;;;;5058413;28;20101;-65
2023/03/18 04:29:13;;;;;;;15.00;9.32;;;;;;;;;;5075320;28;20035;-65
2023/03/18 04:31:38;;;;;;;34.38;19.33;;;;;;;;;;5078772;28;20028;-65
2023/03/18 04:34:03;;;;;;;17.90;11.13;;;;;;;;;;5078703;28;20023;-65
2023/03/18 04:36:29;;;;;;;31.17;24.75;;;;;;;;;;5078739;28;20032;-65
2023/03/18 04:38:55;;;;;;;41.20;30.98;;;;;;;;;;5078621;28;20474;-65
2023/03/18 04:41:21;;;;;;;29.73;23.38;;;;;;;;;;5078655;28;20032;-65
2023/03/18 04:43:47;;;;;;;21.30;16.70;;;;;;;;;;5096994;28;20027;-65
2023/03/18 04:46:13;;;;;;;14.98;10.23;;;;;;;;;;5078548;28;20122;-65
2023/03/18 04:48:41;;;;;;;17.30;10.60;;;;;;;;;;5078678;28;20417;-65
2023/03/18 04:51:08;;;;;;;22.95;13.77;;;;;;;;;;5061969;28;20028;-65
2023/03/18 04:53:34;;;;;;;16.95;10.70;;;;;;;;;;5078382;28;20055;-65
2023/03/18 04:56:00;;;;;;;14.43;10.27;;;;;;;;;;5096505;28;20508;-65
2023/03/18 04:58:33;;;;;;;16.10;8.60;;;;;;;;;;5096407;28;20020;-65
2023/03/18 05:01:07;;;;;;;17.25;9.88;;;;;;;;;;5096685;28;20111;-65
2023/03/18 05:03:36;;;;;;;19.67;11.02;;;;;;;;;;5078248;28;20414;-65
2023/03/18 05:06:01;;;;;;;34.92;13.10;;;;;;;;;;5078212;28;20039;-65
2023/03/18 05:08:45;;;;;;;27.60;12.15;;;;;;;;;;5077890;28;20031;-65
2023/03/18 05:11:10;;;;;;;23.40;13.13;;;;;;;;;;5078002;28;20028;-65
2023/03/18 05:13:36;;;;;;;26.35;15.27;;;;;;;;;;5078020;28;20020;-65
2023/03/18 05:16:01;;;;;;;20.75;12.43;;;;;;;;;;5078014;28;20381;-65
2023/03/18 05:18:27;;;;;;;14.82;10.65;;;;;;;;;;5077889;28;20059;-65
2023/03/18 05:20:53;;;;;;;15.15;10.18;;;;;;;;;;5078136;28;20031;-66
2023/03/18 05:23:19;;;;;;;18.90;10.45;;;;;;;;;;5077887;28;20028;-66
2023/03/18 05:25:50;;;;;;;14.77;9.93;;;;;;;;;;5078664;28;20028;-65
2023/03/18 05:28:17;;;;;;;23.73;13.07;;;;;;;;;;5077924;28;20024;-65
2023/03/18 05:30:51;;;;;;;19.17;11.15;;;;;;;;;;5095811;28;20036;-65
2023/03/18 05:33:17;;;;;;;13.93;9.05;;;;;;;;;;5077918;28;20028;-65
2023/03/18 05:35:50;;;;;;;15.93;8.68;;;;;;;;;;5077885;28;20416;-65
2023/03/18 05:38:19;;;;;;;12.50;8.27;;;;;;;;;;5077556;28;20028;-65
2023/03/18 05:40:44;;;;;;;15.93;10.02;;;;;;;;;;5076811;28;20123;-65
2023/03/18 05:43:17;;;;;;;24.92;13.07;;;;;;;;;;5077841;28;20073;-65
2023/03/18 05:45:50;;;;;;;35.58;16.35;;;;;;;;;;5077381;28;20078;-65
2023/03/18 05:48:18;;;;;;;39.95;21.15;;;;;;;;;;5077569;28;20120;-65
2023/03/18 05:50:51;;;;;;;35.78;22.92;;;;;;;;;;5077266;28;20096;-65
2023/03/18 05:53:19;;;;;;;39.75;26.42;;;;;;;;;;5077283;28;20103;-65
2023/03/18 05:55:48;;;;;;;49.30;35.63;;;;;;;;;;5077716;28;20039;-65
2023/03/18 05:58:14;;;;;;;47.95;32.53;;;;;;;;;;5077184;28;20028;-65
2023/03/18 06:00:42;;;;;;;39.90;24.90;;;;;;;;;;5077037;28;20028;-65
2023/03/18 06:03:09;;;;;;;35.65;23.15;;;;;;;;;;5077005;28;20035;-65
2023/03/18 06:05:34;;;;;;;38.65;24.50;;;;;;;;;;5076951;28;20028;-65
2023/03/18 06:08:00;;;;;;;34.80;20.60;;;;;;;;;;5076832;28;20024;-65
2023/03/18 06:10:25;;;;;;;40.75;22.38;;;;;;;;;;5094910;28;20085;-65
2023/03/18 06:12:51;;;;;;;40.70;21.33;;;;;;;;;;5076853;28;20028;-65
2023/03/18 06:15:17;;;;;;;24.52;13.07;;;;;;;;;;5095246;28;20052;-65
2023/03/18 06:17:43;;;;;;;25.85;14.63;;;;;;;;;;5076728;28;20043;-65
2023/03/18 06:20:10;;;;;;;26.40;13.70;;;;;;;;;;5094836;28;20032;-65
2023/03/18 06:22:37;;;;;;;27.95;16.35;;;;;;;;;;5076865;28;20077;-65
2023/03/18 06:25:03;;;;;;;26.17;13.35;;;;;;;;;;5076628;28;20020;-65
2023/03/18 06:27:29;;;;;;;57.45;33.10;;;;;;;;;;5076760;28;20024;-65
2023/03/18 06:30:01;;;;;;;17.42;11.13;;;;;;;;;;5076497;28;20016;-65
2023/03/18 06:32:27;;;;;;;17.13;9.88;;;;;;;;;;5060151;28;20020;-65
2023/03/18 06:34:52;;;;;;;18.90;9.07;;;;;;;;;;5076465;28;20024;-65
2023/03/18 06:37:18;;;;;;;29.83;16.77;;;;;;;;;;5059965;28;20493;-65
2023/03/18 06:39:43;;;;;;;11.38;8.25;;;;;;;;;;5076268;28;20032;-65
2023/03/18 06:42:09;;;;;;;17.30;9.63;;;;;;;;;;5076268;28;20103;-65
2023/03/18 06:44:53;;;;;;;18.48;10.95;;;;;;;;;;5076268;28;20024;-65
2023/03/18 06:47:25;;;;;;;12.45;7.82;;;;;;;;;;5094658;28;20031;-65
2023/03/18 06:49:53;;;;;;;16.05;9.23;;;;;;;;;;5076209;28;20119;-65
2023/03/18 06:52:26;;;;;;;14.40;8.98;;;;;;;;;;5076466;28;20023;-65
2023/03/18 06:54:55;;;;;;;16.67;10.73;;;;;;;;;;5076068;28;20020;-65
2023/03/18 06:57:21;;;;;;;18.77;12.68;;;;;;;;;;5076073;28;20039;-60
2023/03/18 06:59:48;;;;;;;25.05;19.25;;;;;;;;;;5076302;28;20050;-60
2023/03/18 07:02:14;;;;;;;12.95;9.23;;;;;;;;;;5094154;28;20028;-60
2023/03/18 07:04:39;;;;;;;13.98;7.80;;;;;;;;;;5076015;28;20416;-60
2023/03/18 07:07:06;;;;;;;18.90;10.32;;;;;;;;;;5075921;28;20024;-60
2023/03/18 07:09:33;;;;;;;37.53;19.85;;;;;;;;;;5075676;28;20123;-60
2023/03/18 07:12:00;;;;;;;32.35;17.00;;;;;;;;;;5075836;28;20056;-60
2023/03/18 07:14:25;;;;;;;42.75;27.10;;;;;;;;;;5094207;28;20028;-60
2023/03/18 07:16:50;;;;;;;10.80;7.45;;;;;;;;;;5075826;28;20533;-60
2023/03/18 07:19:17;;;;;;;14.05;7.80;;;;;;;;;;5075773;28;20107;-60
2023/03/18 07:21:43;;;;;;;12.05;7.15;;;;;;;;;;5059467;28;20488;-60
2023/03/18 07:24:08;;;;;;;11.75;7.47;;;;;;;;;;5075736;28;20024;-60
2023/03/18 07:26:36;;;;;;;11.48;7.28;;;;;;;;;;5075666;28;20047;-60
2023/03/18 07:29:02;;;;;;;12.57;8.50;;;;;;;;;;5075620;28;20028;-60
2023/03/18 07:31:28;;;;;;;12.43;8.07;;;;;;;;;;5075688;28;20089;-60
2023/03/18 07:33:54;;;;;;;12.95;7.35;;;;;;;;;;5093752;28;20062;-59
2023/03/18 07:36:20;;;;;;;9.20;6.90;;;;;;;;;;5093758;28;20409;-60
2023/03/18 07:38:45;;;;;;;12.38;7.75;;;;;;;;;;5093721;28;20035;-59
2023/03/18 07:41:11;;;;;;;11.20;7.00;;;;;;;;;;5093719;28;20070;-59
2023/03/18 07:43:38;;;;;;;30.15;19.88;;;;;;;;;;5093659;28;20583;-59
2023/03/18 07:46:04;;;;;;;13.43;7.95;;;;;;;;;;5093917;28;20367;-59
2023/03/18 07:48:30;;;;;;;17.52;10.43;;;;;;;;;;5093558;28;20028;-60
2023/03/18 07:50:55;;;;;;;11.68;8.18;;;;;;;;;;5093824;28;20024;-60
2023/03/18 07:53:21;;;;;;;12.35;7.68;;;;;;;;;;5093870;28;20024;-59
2023/03/18 07:55:46;;;;;;;12.55;7.60;;;;;;;;;;5093516;28;20047;-60
2023/03/18 07:58:12;;;;;;;9.65;6.55;;;;;;;;;;5093781;28;20052;-60
2023/03/18 08:00:37;;;;;;;10.18;5.88;;;;;;;;;;5093529;28;20382;-60
2023/03/18 08:03:03;;;;;;;10.32;6.13;;;;;;;;;;5094068;28;20032;-60
2023/03/18 08:05:28;;;;;;;8.85;5.60;;;;;;;;;;5077839;28;20498;-60
2023/03/18 08:07:54;;;;;;;9.52;6.07;;;;;;;;;;5097357;28;20385;-60
2023/03/18 08:10:19;;;;;;;10.50;6.35;;;;;;;;;;5097279;28;20036;-60
2023/03/18 08:12:45;;;;;;;7.95;6.10;;;;;;;;;;5097336;28;20496;-60
2023/03/18 08:15:10;;;;;;;9.45;6.03;;;;;;;;;;5097276;28;20459;-59
2023/03/18 08:17:36;;;;;;;8.60;6.25;;;;;;;;;;5097804;28;20023;-59
2023/03/18 08:20:01;;;;;;;9.52;5.57;;;;;;;;;;5097484;28;20024;-60
2023/03/18 08:22:27;;;;;;;7.72;5.32;;;;;;;;;;5097441;28;20008;-60
2023/03/18 08:24:52;;;;;;;10.80;5.18;;;;;;;;;;5097164;28;20462;-59
2023/03/18 08:27:17;;;;;;;10.32;6.07;;;;;;;;;;5097051;28;20070;-60
2023/03/18 08:29:43;;;;;;;9.68;6.28;;;;;;;;;;5097260;28;20111;-60
2023/03/18 08:32:09;;;;;;;10.50;5.53;;;;;;;;;;5096986;28;20381;-59
2023/03/18 08:34:35;;;;;;;8.77;5.72;;;;;;;;;;5096929;28;20504;-60
2023/03/18 08:37:00;;;;;;;8.93;5.30;;;;;;;;;;5096928;28;20024;-60
2023/03/18 08:39:25;;;;;;;8.80;5.13;;;;;;;;;;5078774;28;20036;-60
2023/03/18 08:41:51;;;;;;;6.95;4.90;;;;;;;;;;5096785;28;20119;-60
2023/03/18 08:44:17;;;;;;;10.88;6.20;;;;;;;;;;5096994;28;20028;-60
2023/03/18 08:46:42;;;;;;;13.05;6.97;;;;;;;;;;5096991;28;20047;-59
2023/03/18 08:49:09;;;;;;;8.57;5.65;;;;;;;;;;5096585;28;20024;-60
2023/03/18 08:51:34;;;;;;;9.73;5.60;;;;;;;;;;5097174;28;20032;-60
2023/03/18 08:53:59;;;;;;;8.75;6.10;;;;;;;;;;5096557;28;20111;-60
2023/03/18 08:56:25;;;;;;;8.40;5.22;;;;;;;;;;5096794;28;20024;-60
2023/03/18 08:58:50;;;;;;;13.23;6.25;;;;;;;;;;5078704;28;20043;-60
2023/03/18 09:01:16;;;;;;;7.40;5.18;;;;;;;;;;5096402;28;20024;-60
2023/03/18 09:03:59;;;;;;;9.45;5.25;;;;;;;;;;5116377;22;20498;-64
2023/03/18 09:06:24;;;;;;;7.80;4.60;;;;;;;;;;5070955;22;20034;-64
2023/03/18 09:08:49;;;;;;;7.47;4.85;;;;;;;;;;5116788;22;20059;-60
2023/03/18 09:11:15;;;;;;;6.25;3.80;;;;;;;;;;5096271;28;20020;-60
2023/03/18 09:13:40;;;;;;;4.82;3.67;;;;;;;;;;5096464;28;20027;-59
2023/03/18 09:16:07;;;;;;;7.85;4.38;;;;;;;;;;5096085;28;20108;-59
2023/03/18 09:18:34;;;;;;;6.97;4.97;;;;;;;;;;5096399;28;20103;-59
2023/03/18 09:20:59;;;;;;;6.68;4.50;;;;;;;;;;5096007;28;20077;-59
2023/03/18 09:23:26;;;;;;;6.53;4.78;;;;;;;;;;5096002;28;20477;-60
2023/03/18 09:25:53;;;;;;;5.55;4.63;;;;;;;;;;5095932;28;20038;-59
2023/03/18 09:28:18;;;;;;;4.05;2.88;;;;;;;;;;5096097;28;20027;-59
2023/03/18 09:30:44;;;;;;;6.18;3.08;;;;;;;;;;5096138;28;20024;-59
2023/03/18 09:33:10;;;;;;;4.03;3.33;;;;;;;;;;5077627;28;20033;-60
2023/03/18 09:35:36;;;;;;;4.90;2.97;;;;;;;;;;5096014;28;20066;-59
2023/03/18 09:38:02;;;;;;;4.15;3.30;;;;;;;;;;5095717;28;20016;-59
2023/03/18 09:40:30;;;;;;;4.20;3.17;;;;;;;;;;5095959;28;20082;-60
2023/03/18 09:43:02;;;;;;;4.68;3.35;;;;;;;;;;5095518;28;20494;-59
2023/03/18 09:45:44;;;;;;;6.43;3.47;;;;;;;;;;5095823;28;20028;-60
2023/03/18 09:48:28;;;;;;;5.40;3.55;;;;;;;;;;5095692;28;20028;-60
2023/03/18 09:50:54;;;;;;;4.95;3.33;;;;;;;;;;5096082;28;20107;-60
2023/03/18 09:53:19;;;;;;;4.32;3.17;;;;;;;;;;5095409;28;20060;-59
2023/03/18 09:55:49;;;;;;;6.03;3.75;;;;;;;;;;5095668;28;20031;-60
2023/03/18 09:58:33;;;;;;;5.55;3.88;;;;;;;;;;5095627;28;20028;-60
2023/03/18 10:01:00;;;;;;;5.68;4.60;;;;;;;;;;5095527;28;20027;-59
2023/03/18 10:03:29;;;;;;;8.00;4.72;;;;;;;;;;5077075;28;20557;-60
2023/03/18 10:06:01;;;;;;;6.82;3.67;;;;;;;;;;5095153;28;20057;-59
2023/03/18 10:08:30;;;;;;;4.00;3.25;;;;;;;;;;5095152;28;20561;-60
2023/03/18 10:10:56;;;;;;;6.30;3.90;;;;;;;;;;5095069;28;20059;-60
2023/03/18 10:13:26;;;;;;;4.88;3.17;;;;;;;;;;5095311;28;20028;-59
2023/03/18 10:15:56;;;;;;;4.20;3.30;;;;;;;;;;5095043;28;20043;-60
2023/03/18 10:18:28;;;;;;;3.85;3.28;;;;;;;;;;5095515;28;20089;-60
2023/03/18 10:20:57;;;;;;;5.18;4.10;;;;;;;;;;5095195;28;20024;-59
2023/03/18 10:23:32;;;;;;;5.50;3.63;;;;;;;;;;5094894;28;20031;-60
2023/03/18 10:26:00;;;;;;;4.65;3.45;;;;;;;;;;5076643;28;20028;-60
2023/03/18 10:28:32;;;;;;;3.88;3.00;;;;;;;;;;5094490;28;20039;-60
2023/03/18 10:31:00;;;;;;;3.42;3.13;;;;;;;;;;5094682;28;20044;-60
2023/03/18 10:33:35;;;;;;;6.28;3.70;;;;;;;;;;5095177;28;20081;-59
2023/03/18 10:36:18;;;;;;;8.02;4.75;;;;;;;;;;5095133;28;20043;-60
2023/03/18 10:38:47;;;;;;;6.45;4.43;;;;;;;;;;5094868;28;20051;-60
2023/03/18 10:41:18;;;;;;;8.20;4.18;;;;;;;;;;5094793;28;20038;-60
2023/03/18 10:43:45;;;;;;;4.97;3.75;;;;;;;;;;5095055;28;20077;-60
2023/03/18 10:46:12;;;;;;;8.23;3.25;;;;;;;;;;5094439;28;20036;-60
2023/03/18 10:48:38;;;;;;;5.00;2.95;;;;;;;;;;5094614;28;20050;-59
2023/03/18 10:51:10;;;;;;;4.10;2.78;;;;;;;;;;5094673;28;20458;-60
2023/03/18 10:53:42;;;;;;;6.53;3.03;;;;;;;;;;5076170;28;20028;-60
2023/03/18 10:56:08;;;;;;;5.20;3.28;;;;;;;;;;5094537;28;20108;-60
2023/03/18 10:58:34;;;;;;;5.10;3.65;;;;;;;;;;5094220;28;20085;-59
2023/03/18 11:01:00;;;;;;;4.35;3.53;;;;;;;;;;5094457;28;20157;-60
2023/03/18 11:03:31;;;;;;;3.00;2.38;;;;;;;;;;5094433;28;20107;-59
2023/03/18 11:05:58;;;;;;;3.38;2.50;;;;;;;;;;5094413;28;20489;-59
2023/03/18 11:08:34;;;;;;;2.85;2.35;;;;;;;;;;5093852;28;20067;-59
2023/03/18 11:11:18;;;;;;;4.57;3.15;;;;;;;;;;5094308;28;20039;-60
2023/03/18 11:13:54;;;;;;;3.13;2.60;;;;;;;;;;5076285;28;20028;-60
2023/03/18 11:16:37;;;;;;;5.57;3.22;;;;;;;;;;5094269;28;20036;-60
2023/03/18 11:19:24;;;;;;;3.80;2.85;;;;;;;;;;5094235;28;20040;-60
2023/03/18 11:22:00;;;;;;;3.97;2.55;;;;;;;;;;5094179;28;20409;-60
2023/03/18 11:24:37;;;;;;;3.67;2.47;;;;;;;;;;5093854;28;20047;-60
2023/03/18 11:27:03;;;;;;;2.83;2.55;;;;;;;;;;5075771;28;20060;-60
2023/03/18 11:29:33;;;;;;;4.18;2.45;;;;;;;;;;5075607;28;20063;-60
2023/03/18 11:31:59;;;;;;;3.92;2.45;;;;;;;;;;5094037;28;20043;-60
2023/03/18 11:34:25;;;;;;;2.90;2.33;;;;;;;;;;5094042;28;20020;-60
2023/03/18 11:36:57;;;;;;;3.30;2.20;;;;;;;;;;5093759;28;20116;-60
2023/03/18 11:39:23;;;;;;;3.42;2.42;;;;;;;;;;5094365;28;20031;-60
2023/03/18 11:41:49;;;;;;;3.33;2.30;;;;;;;;;;5098226;28;20074;-60
2023/03/18 11:44:16;;;;;;;4.25;1.65;;;;;;;;;;5098476;28;20028;-60
2023/03/18 11:46:51;;;;;;;2.95;2.45;;;;;;;;;;5098145;28;20028;-60
2023/03/18 11:49:21;;;;;;;4.28;2.47;;;;;;;;;;5079908;28;20454;-59
2023/03/18 11:51:47;;;;;;;;;;;;;;;;;;5080440;28;20466;-59
2023/03/18 11:54:18;;;;;;;2.35;1.98;;;;;;;;;;5097956;28;19908;-59
2023/03/18 11:56:46;;;;;;;2.83;2.20;;;;;;;;;;5079469;28;20068;-59
2023/03/18 11:59:11;;;;;;;2.50;2.20;;;;;;;;;;5097879;28;20039;-59
2023/03/18 12:01:56;;;;;;;3.95;2.70;;;;;;;;;;5079393;28;20016;-59
2023/03/18 12:04:22;;;;;;;2.88;2.67;;;;;;;;;;5098051;28;20040;-59
2023/03/18 12:06:54;;;;;;;3.72;2.53;;;;;;;;;;5097756;28;20039;-59
2023/03/18 12:09:30;;;;;;;3.70;2.75;;;;;;;;;;5097175;28;20123;-59
2023/03/18 12:12:13;;;;;;;5.22;2.90;;;;;;;;;;5079240;28;20482;-59
2023/03/18 12:14:44;;;;;;;5.05;2.03;;;;;;;;;;5097925;28;20032;-60
2023/03/18 12:17:34;;;;;;;3.28;2.95;;;;;;;;;;5079130;28;20410;-60
2023/03/18 12:20:01;;;;;;;4.00;2.45;;;;;;;;;;5097257;28;20474;-60
2023/03/18 12:22:27;;;;;;;3.03;2.67;;;;;;;;;;5097404;28;20051;-60
2023/03/18 12:24:55;;;;;;;3.08;2.05;;;;;;;;;;5097177;28;20478;-60
2023/03/18 12:27:41;;;;;;;2.42;2.15;;;;;;;;;;5097373;28;20058;-59
2023/03/18 12:30:29;;;;;;;2.97;2.13;;;;;;;;;;5078841;28;20032;-59
2023/03/18 12:33:10;;;;;;;3.15;2.33;;;;;;;;;;5097297;28;20032;-65
2023/03/18 12:35:42;;;;;;;3.40;2.65;;;;;;;;;;5096907;28;20036;-65
2023/03/18 12:38:26;;;;;;;3.25;1.58;;;;;;;;;;5079322;28;20166;-65
2023/03/18 12:41:09;;;;;;;3.45;2.63;;;;;;;;;;5097055;28;20028;-65
2023/03/18 12:43:50;;;;;;;3.90;2.70;;;;;;;;;;5097041;28;20039;-65
2023/03/18 12:46:18;;;;;;;2.90;2.53;;;;;;;;;;5096711;28;20043;-65
2023/03/18 12:48:49;;;;;;;4.50;3.13;;;;;;;;;;5097213;28;20024;-65
2023/03/18 12:51:19;;;;;;;3.30;2.63;;;;;;;;;;5096194;28;20051;-65
2023/03/18 12:53:47;;;;;;;3.53;2.57;;;;;;;;;;5096941;28;20027;-65
2023/03/18 12:56:24;;;;;;;2.80;2.53;;;;;;;;;;5096592;28;20317;-65
2023/03/18 12:59:06;;;;;;;3.78;2.72;;;;;;;;;;5096529;28;20389;-65
2023/03/18 13:01:35;;;;;;;2.33;2.13;;;;;;;;;;5096735;28;20035;-65
2023/03/18 13:04:03;;;;;;;2.45;2.25;;;;;;;;;;5096423;28;20048;-65
2023/03/18 13:06:40;;;;;;;3.05;2.40;;;;;;;;;;5096661;28;20106;-65
2023/03/18 13:09:41;;;;;;;3.53;2.47;;;;;;;;;;5096526;28;20520;-65
2023/03/18 13:12:10;;;;;;;2.47;2.28;;;;;;;;;;5014477;28;20033;-65
2023/03/18 13:14:45;;;;;;;3.80;2.95;;;;;;;;;;5081175;28;20040;-65
2023/03/18 13:17:12;;;;;;;4.85;2.35;;;;;;;;;;5096430;28;20035;-65
2023/03/18 13:19:40;;;;;;;4.07;2.50;;;;;;;;;;5096372;28;20050;-65
2023/03/18 13:22:15;;;;;;;4.07;2.85;;;;;;;;;;5096303;28;20036;-65
2023/03/18 13:25:03;;;;;;;4.43;2.70;;;;;;;;;;5096301;28;20032;-65
2023/03/18 13:27:38;;;;;;;3.85;2.83;;;;;;;;;;5095931;28;20084;-65
2023/03/18 13:30:05;;;;;;;4.18;2.88;;;;;;;;;;5096137;28;20040;-65
2023/03/18 13:32:30;;;;;;;4.25;2.70;;;;;;;;;;5096176;28;20103;-65
2023/03/18 13:35:11;;;;;;;4.18;3.05;;;;;;;;;;5095811;28;20086;-65
2023/03/18 13:37:51;;;;;;;4.68;3.08;;;;;;;;;;5077631;28;20520;-65
2023/03/18 13:40:17;;;;;;;;;;;;;;;;;;5096435;28;20047;-65
2023/03/18 13:42:44;;;;;;;4.60;3.47;;;;;;;;;;5095938;28;19908;-65
2023/03/18 13:45:12;;;;;;;4.97;3.08;;;;;;;;;;5077789;28;20063;-65
2023/03/18 13:47:39;;;;;;;4.05;2.83;;;;;;;;;;5077802;28;20579;-65
2023/03/18 13:50:20;;;;;;;8.50;4.10;;;;;;;;;;5078151;28;20032;-65
2023/03/18 13:52:46;;;;;;;7.47;4.20;;;;;;;;;;5077954;28;20458;-65
2023/03/18 13:55:32;;;;;;;7.85;4.60;;;;;;;;;;5095416;28;20470;-65
2023/03/18 13:58:05;;;;;;;20.58;8.95;;;;;;;;;;5095628;28;20107;-65
2023/03/18 14:00:32;;;;;;;6.00;3.85;;;;;;;;;;5095885;28;20108;-65
2023/03/18 14:03:03;;;;;;;3.15;2.80;;;;;;;;;;5105727;22;20605;-63
2023/03/18 14:05:33;;;;;;;3.40;2.63;;;;;;;;;;5082911;22;20143;-59
2023/03/18 14:08:03;;;;;;;6.25;3.72;;;;;;;;;;5101891;22;20066;-64
2023/03/18 14:10:29;;;;;;;3.38;2.38;;;;;;;;;;5095331;28;20031;-65
2023/03/18 14:12:55;;;;;;;3.20;2.78;;;;;;;;;;5095026;28;20036;-65
2023/03/18 14:15:40;;;;;;;3.97;2.78;;;;;;;;;;5077002;28;20028;-64
2023/03/18 14:18:22;;;;;;;4.43;3.08;;;;;;;;;;5095215;28;20036;-66
2023/03/18 14:20:51;;;;;;;6.85;4.60;;;;;;;;;;5095475;28;20028;-65
2023/03/18 14:23:28;;;;;;;5.78;3.85;;;;;;;;;;5094869;28;20043;-65
2023/03/18 14:26:16;;;;;;;3.50;3.10;;;;;;;;;;5095073;28;20039;-65
2023/03/18 14:28:44;;;;;;;5.90;4.60;;;;;;;;;;5095006;28;20078;-65
2023/03/18 14:31:12;;;;;;;4.40;3.42;;;;;;;;;;5076605;28;20035;-65
2023/03/18 14:34:10;;;;;;;4.43;3.35;;;;;;;;;;5094700;28;20109;-65
2023/03/18 14:36:44;;;;;;;3.40;3.10;;;;;;;;;;5049884;28;20028;-65
2023/03/18 14:39:17;;;;;;;5.10;3.50;;;;;;;;;;5095143;28;20040;-65
2023/03/18 14:41:45;;;;;;;6.07;3.75;;;;;;;;;;5094820;28;20028;-65